Time;durP1;ratioP1;P1;durP2;ratioP2;P2;SDS_P1;SDS_P2;PMS_P1;PMS_P2;Temp;Humidity;BMP_temperature;BMP_pressure;BME280_temperature;BME280_humidity;BME280_pressure;Samples;Min_cycle;Max_cycle;Signal;HPM_P1;HPM_P2
2022/12/18 00:01:18;;;;;;;;;;;-3.80;99.90;;;;;;5033664;28;19928;-92
2022/12/18 00:03:44;;;;;;;;;;;-3.70;99.90;;;;;;5036692;28;19938;-94
2022/12/18 00:06:09;;;;;;;;;;;-1.70;99.90;;;;;;5034628;28;19963;-93
2022/12/18 00:08:35;;;;;;;;;;;-1.10;99.90;;;;;;5052469;28;19928;-93
2022/12/18 00:11:05;;;;;;;;;;;-3.80;99.90;;;;;;5039389;28;19924;-94
2022/12/18 00:13:30;;;;;;;;;;;-3.70;99.90;;;;;;5053241;28;20004;-92
2022/12/18 00:16:00;;;;;;;;;;;-3.80;99.90;;;;;;5056710;28;19924;-93
2022/12/18 00:18:26;;;;;;;;;;;-3.70;99.90;;;;;;5042025;28;19925;-92
2022/12/18 00:20:52;;;;;;;;;;;-3.80;99.90;;;;;;5033740;28;19927;-94
2022/12/18 00:23:17;;;;;;;;;;;-3.70;99.90;;;;;;5035068;28;19970;-93
2022/12/18 00:25:43;;;;;;;;;;;-0.60;99.90;;;;;;5067048;28;19931;-94
2022/12/18 00:28:08;;;;;;;;;;;-3.90;99.90;;;;;;5035181;28;19924;-93
2022/12/18 00:30:34;;;;;;;;;;;-1.40;99.90;;;;;;5013452;28;19932;-92
2022/12/18 00:33:00;;;;;;;;;;;-1.60;99.90;;;;;;5050497;28;19935;-92
2022/12/18 00:35:25;;;;;;;;;;;-4.00;99.90;;;;;;5051952;28;19947;-94
2022/12/18 00:37:51;;;;;;;;;;;-1.30;99.90;;;;;;5081162;28;20023;-93
2022/12/18 00:40:16;;;;;;;;;;;-4.00;99.90;;;;;;5053140;28;19996;-94
2022/12/18 00:42:57;;;;;;;;;;;-3.90;99.90;;;;;;5062368;28;19932;-94
2022/12/18 00:45:27;;;;;;;;;;;-4.00;99.90;;;;;;5038596;28;20008;-94
2022/12/18 00:47:53;;;;;;;;;;;-4.00;99.90;;;;;;5067198;28;19964;-93
2022/12/18 00:50:19;;;;;;;;;;;-4.20;99.90;;;;;;5035020;28;19978;-94
2022/12/18 00:52:44;;;;;;;;;;;-4.20;99.90;;;;;;5069453;28;19924;-93
2022/12/18 00:55:10;;;;;;;;;;;-2.50;99.90;;;;;;5041163;28;19933;-94
2022/12/18 00:57:36;;;;;;;;;;;-4.20;99.90;;;;;;5033547;28;19925;-94
2022/12/18 01:00:02;;;;;;;;;;;-4.10;99.90;;;;;;5047446;28;19925;-95
2022/12/18 01:02:28;;;;;;;;;;;-4.20;99.90;;;;;;5031980;28;20333;-93
2022/12/18 01:04:53;;;;;;;;;;;-1.10;99.90;;;;;;5014960;28;19931;-94
2022/12/18 01:07:19;;;;;;;;;;;-2.00;99.90;;;;;;5029064;28;19933;-95
2022/12/18 01:09:45;;;;;;;;;;;-4.20;99.90;;;;;;5041106;28;19925;-94
2022/12/18 01:12:11;;;;;;;;;;;-1.10;99.90;;;;;;5010810;28;19928;-94
2022/12/18 01:14:37;;;;;;;;;;;-1.50;99.90;;;;;;5032244;28;19933;-94
2022/12/18 01:17:03;;;;;;;;;;;-3.50;99.90;;;;;;5046283;28;19983;-93
2022/12/18 01:19:29;;;;;;;;;;;-4.40;99.90;;;;;;5033259;28;19926;-93
2022/12/18 01:21:54;;;;;;;;;;;-4.40;99.90;;;;;;5030724;28;19925;-94
2022/12/18 01:24:20;;;;;;;;;;;-4.40;99.90;;;;;;5032398;28;19971;-94
2022/12/18 01:26:46;;;;;;;;;;;-3.60;99.90;;;;;;5029414;28;19932;-95
2022/12/18 01:29:11;;;;;;;;;;;-4.50;99.90;;;;;;5032126;28;19921;-93
2022/12/18 01:31:37;;;;;;;;;;;-4.60;99.90;;;;;;5034890;28;19935;-93
2022/12/18 01:34:04;;;;;;;;;;;-4.70;99.90;;;;;;5032834;28;19925;-94
2022/12/18 01:36:34;;;;;;;;;;;-1.80;99.90;;;;;;5036420;28;19925;-93
2022/12/18 01:39:04;;;;;;;;;;;-2.10;99.90;;;;;;5031486;28;19925;-95
2022/12/18 01:42:01;;;;;;;;;;;-4.90;99.90;;;;;;5034274;28;19925;-94
2022/12/18 01:44:36;;;;;;;;;;;-1.30;99.90;;;;;;5049433;28;19936;-95
2022/12/18 01:47:01;;;;;;;;;;;-4.70;99.90;;;;;;5028008;28;19925;-94
2022/12/18 01:49:27;;;;;;;;;;;-3.60;99.90;;;;;;5031524;28;20377;-95
2022/12/18 01:51:52;;;;;;;;;;;-1.50;99.90;;;;;;5012566;28;19925;-94
2022/12/18 01:54:18;;;;;;;;;;;-5.00;99.90;;;;;;5031677;28;19925;-93
2022/12/18 01:56:44;;;;;;;;;;;-2.10;99.90;;;;;;5047519;28;19925;-94
2022/12/18 01:59:10;;;;;;;;;;;-5.20;99.90;;;;;;5050964;28;19987;-94
2022/12/18 02:01:37;;;;;;;;;;;-4.80;99.90;;;;;;5051881;28;19925;-93
2022/12/18 02:04:22;;;;;;;;;;;-2.20;99.90;;;;;;5048931;28;19964;-94
2022/12/18 02:07:11;;;;;;;;;;;-5.20;99.90;;;;;;5050037;28;19988;-95
2022/12/18 02:09:43;;;;;;;;;;;-5.20;99.90;;;;;;5024177;28;19929;-94
2022/12/18 02:12:18;;;;;;;;;;;-5.20;99.90;;;;;;5049903;28;19931;-94
2022/12/18 02:14:45;;;;;;;;;;;-5.20;99.90;;;;;;5051124;28;19924;-93
2022/12/18 02:17:15;;;;;;;;;;;-5.30;99.90;;;;;;5049185;28;19935;-94
2022/12/18 02:19:41;;;;;;;;;;;-2.30;99.90;;;;;;5051464;28;19925;-94
2022/12/18 02:22:13;;;;;;;;;;;-5.30;99.90;;;;;;5057931;28;19938;-94
2022/12/18 02:25:06;;;;;;;;;;;-5.60;99.90;;;;;;5039666;28;20418;-94
2022/12/18 02:27:33;;;;;;;;;;;-5.40;99.90;;;;;;5047990;28;19931;-94
2022/12/18 02:30:00;;;;;;;;;;;-5.40;99.90;;;;;;5065764;28;19924;-94
2022/12/18 02:32:28;;;;;;;;;;;-5.50;99.90;;;;;;5050965;28;19924;-96
2022/12/18 02:34:55;;;;;;;;;;;-5.70;99.90;;;;;;5049782;28;20414;-93
2022/12/18 02:37:21;;;;;;;;;;;-5.60;99.90;;;;;;5050794;28;19935;-95
2022/12/18 02:39:48;;;;;;;;;;;-2.10;99.90;;;;;;5050933;28;19932;-95
2022/12/18 02:42:14;;;;;;;;;;;-5.60;99.90;;;;;;5047456;28;19977;-95
2022/12/18 02:44:47;;;;;;;;;;;-5.60;99.90;;;;;;5051224;28;19955;-94
2022/12/18 02:47:13;;;;;;;;;;;-5.60;99.90;;;;;;5048120;28;19925;-95
2022/12/18 02:49:42;;;;;;;;;;;-5.60;99.90;;;;;;5033648;28;19975;-94
2022/12/18 02:52:17;;;;;;;;;;;-5.30;99.90;;;;;;5049419;28;19943;-95
2022/12/18 02:54:53;;;;;;;;;;;-5.80;99.90;;;;;;5066390;28;19992;-95
2022/12/18 02:57:19;;;;;;;;;;;;;;;;;;5046566;28;19924;-95
2022/12/18 03:00:03;;;;;;;;;;;-5.70;99.90;;;;;;5048227;28;19931;-94
2022/12/18 03:02:35;;;;;;;;;;;-6.80;99.90;;;;;;5048280;28;19924;-93
2022/12/18 03:05:06;;;;;;;;;;;-5.60;99.90;;;;;;5048676;28;19924;-95
2022/12/18 03:07:46;;;;;;;;;;;-5.70;99.90;;;;;;5049319;28;19987;-93
2022/12/18 03:10:14;;;;;;;;;;;-5.70;99.90;;;;;;5043208;28;19974;-94
2022/12/18 03:12:44;;;;;;;;;;;-5.80;99.90;;;;;;5053816;28;19932;-94
2022/12/18 03:15:20;;;;;;;;;;;-5.90;99.90;;;;;;5077754;28;19931;-94
2022/12/18 03:17:54;;;;;;;;;;;-5.80;99.90;;;;;;5061529;28;20296;-95
2022/12/18 03:20:21;;;;;;;;;;;-5.80;99.90;;;;;;5050464;28;20018;-94
2022/12/18 03:22:51;;;;;;;;;;;-5.80;99.90;;;;;;5065141;28;20089;-94
2022/12/18 03:25:17;;;;;;;;;;;-5.90;99.90;;;;;;5045627;28;19931;-94
2022/12/18 03:27:46;;;;;;;;;;;-5.90;99.90;;;;;;5054115;28;19925;-95
2022/12/18 03:30:12;;;;;;;;;;;-5.80;99.90;;;;;;5065021;28;19925;-94
2022/12/18 03:32:40;;;;;;;;;;;-5.90;99.90;;;;;;5049443;28;20082;-95
2022/12/18 03:35:06;;;;;;;;;;;-6.00;99.90;;;;;;5048126;28;19925;-93
2022/12/18 03:37:32;;;;;;;;;;;-5.90;99.90;;;;;;5049432;28;19924;-94
2022/12/18 03:39:58;;;;;;;;;;;-6.10;99.90;;;;;;5050969;28;20338;-94
2022/12/18 03:42:24;;;;;;;;;;;-6.00;99.90;;;;;;5046350;28;19931;-95
2022/12/18 03:44:55;;;;;;;;;;;-6.00;99.90;;;;;;5050770;28;19925;-94
2022/12/18 03:47:28;;;;;;;;;;;-6.00;99.90;;;;;;5045060;28;20343;-94
2022/12/18 03:50:14;;;;;;;;;;;-5.60;99.90;;;;;;5050641;28;19938;-94
2022/12/18 03:52:43;;;;;;;;;;;-6.00;99.90;;;;;;5053479;28;20380;-94
2022/12/18 03:55:09;;;;;;;;;;;-6.00;99.90;;;;;;5052563;28;19924;-94
2022/12/18 03:57:35;;;;;;;;;;;-6.10;99.90;;;;;;5051323;28;19990;-93
2022/12/18 04:00:05;;;;;;;;;;;-6.00;99.90;;;;;;5052665;28;19928;-94
2022/12/18 04:02:32;;;;;;;;;;;-6.10;99.90;;;;;;5050132;28;19936;-93
2022/12/18 04:04:59;;;;;;;;;;;-6.10;99.90;;;;;;5068882;28;19935;-95
2022/12/18 04:07:25;;;;;;;;;;;-6.10;99.90;;;;;;5053284;28;19967;-94
2022/12/18 04:09:53;;;;;;;;;;;-6.10;99.90;;;;;;5034041;28;19947;-96
2022/12/18 04:12:18;;;;;;;;;;;-6.10;99.90;;;;;;5045012;28;19925;-94
2022/12/18 04:14:44;;;;;;;;;;;-6.00;99.90;;;;;;5053407;28;19932;-95
2022/12/18 04:17:10;;;;;;;;;;;-6.20;99.90;;;;;;5035523;28;19928;-94
2022/12/18 04:19:36;;;;;;;;;;;-6.20;99.90;;;;;;5028782;28;19925;-96
2022/12/18 04:22:01;;;;;;;;;;;-6.20;99.90;;;;;;5032568;28;19924;-95
2022/12/18 04:24:27;;;;;;;;;;;-6.20;99.90;;;;;;5024827;28;19936;-95
2022/12/18 04:26:53;;;;;;;;;;;-6.30;99.90;;;;;;5052925;28;19928;-93
2022/12/18 04:29:18;;;;;;;;;;;-6.20;99.90;;;;;;5049437;28;19925;-93
2022/12/18 04:31:44;;;;;;;;;;;-6.40;99.90;;;;;;5050695;28;19924;-94
2022/12/18 04:34:09;;;;;;;;;;;-6.30;99.90;;;;;;5050417;28;20368;-94
2022/12/18 04:36:35;;;;;;;;;;;-6.40;99.90;;;;;;5033820;28;19932;-94
2022/12/18 04:39:01;;;;;;;;;;;-6.30;99.90;;;;;;5048205;28;19924;-95
2022/12/18 04:41:26;;;;;;;;;;;-6.40;99.90;;;;;;5038798;28;19928;-94
2022/12/18 04:43:52;;;;;;;;;;;-6.40;99.90;;;;;;5046038;28;19940;-93
2022/12/18 04:46:18;;;;;;;;;;;-6.40;99.90;;;;;;5033603;28;19928;-94
2022/12/18 04:48:45;;;;;;;;;;;-6.40;99.90;;;;;;5052511;28;19932;-94
2022/12/18 04:51:11;;;;;;;;;;;-6.40;99.90;;;;;;5050089;28;19924;-94
2022/12/18 04:53:36;;;;;;;;;;;-6.40;99.90;;;;;;5039949;28;19939;-94
2022/12/18 04:56:09;;;;;;;;;;;-6.50;99.90;;;;;;5052279;28;19971;-93
2022/12/18 04:58:36;;;;;;;;;;;-6.50;99.90;;;;;;5041824;28;20017;-95
2022/12/18 05:01:01;;;;;;;;;;;-6.50;99.90;;;;;;5049119;28;19925;-94
2022/12/18 05:03:27;;;;;;;;;;;-6.50;99.90;;;;;;5050404;28;20393;-95
2022/12/18 05:05:53;;;;;;;;;;;-6.50;99.90;;;;;;5057405;28;19931;-94
2022/12/18 05:08:18;;;;;;;;;;;-6.50;99.90;;;;;;5049418;28;19959;-94
2022/12/18 05:10:44;;;;;;;;;;;-6.60;99.90;;;;;;5056747;28;19931;-96
2022/12/18 05:13:10;;;;;;;;;;;-6.50;99.90;;;;;;5054345;28;19931;-94
2022/12/18 05:15:35;;;;;;;;;;;-6.60;99.90;;;;;;5032798;28;19925;-94
2022/12/18 05:18:02;;;;;;;;;;;-6.60;99.90;;;;;;5058114;28;19931;-95
2022/12/18 05:20:28;;;;;;;;;;;-6.60;99.90;;;;;;5046967;28;19976;-94
2022/12/18 05:22:53;;;;;;;;;;;-6.60;99.90;;;;;;5051388;28;20379;-94
2022/12/18 05:25:19;;;;;;;;;;;-6.60;99.90;;;;;;5033703;28;19933;-95
2022/12/18 05:27:45;;;;;;;;;;;-6.60;99.90;;;;;;5032145;28;19998;-95
2022/12/18 05:30:11;;;;;;;;;;;-6.70;99.90;;;;;;5050492;28;19924;-94
2022/12/18 05:32:37;;;;;;;;;;;-6.60;99.90;;;;;;5051122;28;20419;-94
2022/12/18 05:35:04;;;;;;;;;;;-6.70;99.90;;;;;;5066786;28;19932;-95
2022/12/18 05:37:30;;;;;;;;;;;;;;;;;;5047795;28;19925;-94
2022/12/18 05:39:56;;;;;;;;;;;-6.70;99.90;;;;;;5065424;28;19939;-94
2022/12/18 05:42:21;;;;;;;;;;;-8.30;99.90;;;;;;5049986;28;19932;-96
2022/12/18 05:44:47;;;;;;;;;;;-6.80;99.90;;;;;;5052196;28;19935;-94
2022/12/18 05:47:13;;;;;;;;;;;-6.70;99.90;;;;;;5050391;28;19931;-95
2022/12/18 05:49:39;;;;;;;;;;;-6.70;99.90;;;;;;5048870;28;19925;-94
2022/12/18 05:52:04;;;;;;;;;;;-6.80;99.90;;;;;;5051109;28;19931;-94
2022/12/18 05:54:30;;;;;;;;;;;-6.80;99.90;;;;;;5039821;28;19928;-94
2022/12/18 05:56:56;;;;;;;;;;;-6.80;99.90;;;;;;5029283;28;19926;-94
2022/12/18 05:59:22;;;;;;;;;;;-6.70;99.90;;;;;;4976557;28;19989;-95
2022/12/18 06:01:48;;;;;;;;;;;-6.80;99.90;;;;;;4952244;28;19926;-93
2022/12/18 06:04:14;;;;;;;;;;;-6.90;99.90;;;;;;4951277;28;19951;-95
2022/12/18 06:06:40;;;;;;;;;;;-6.80;99.90;;;;;;4965672;28;19926;-94
2022/12/18 06:09:08;;;;;;;;;;;-6.90;99.90;;;;;;5036697;28;19925;-95
2022/12/18 06:11:34;;;;;;;;;;;-6.90;99.90;;;;;;4954287;28;20351;-96
2022/12/18 06:14:00;;;;;;;;;;;-7.00;99.90;;;;;;5033225;28;19989;-94
2022/12/18 06:16:26;;;;;;;;;;;-6.90;99.90;;;;;;5005546;28;19931;-95
2022/12/18 06:18:52;;;;;;;;;;;-6.90;99.90;;;;;;5041404;28;19941;-94
2022/12/18 06:21:17;;;;;;;;;;;-6.90;99.90;;;;;;5032393;28;19926;-93
2022/12/18 06:23:43;;;;;;;;;;;-6.90;99.90;;;;;;5014657;28;19940;-94
2022/12/18 06:26:10;;;;;;;;;;;-7.00;99.90;;;;;;5012567;28;19927;-94
2022/12/18 06:28:35;;;;;;;;;;;-7.00;99.90;;;;;;5034284;28;20050;-94
2022/12/18 06:31:02;;;;;;;;;;;-7.00;99.90;;;;;;4953644;28;19926;-93
2022/12/18 06:33:28;;;;;;;;;;;-7.00;99.90;;;;;;5031538;28;19932;-95
2022/12/18 06:35:54;;;;;;;;;;;-7.00;99.90;;;;;;4951428;28;19965;-94
2022/12/18 06:38:19;;;;;;;;;;;-7.00;99.90;;;;;;5029559;28;19926;-93
2022/12/18 06:40:45;;;;;;;;;;;-7.10;99.90;;;;;;4961618;28;19951;-93
2022/12/18 06:43:11;;;;;;;;;;;-7.10;99.90;;;;;;5012029;28;19931;-95
2022/12/18 06:45:36;;;;;;;;;;;-7.10;99.90;;;;;;5022215;28;19991;-95
2022/12/18 06:48:02;;;;;;;;;;;-7.00;99.90;;;;;;4948644;28;20288;-92
2022/12/18 06:50:28;;;;;;;;;;;-7.00;99.90;;;;;;4950441;28;19966;-94
2022/12/18 06:52:54;;;;;;;;;;;-7.00;99.90;;;;;;4945753;28;19933;-95
2022/12/18 06:55:19;;;;;;;;;;;-7.10;99.90;;;;;;5028833;28;20013;-93
2022/12/18 06:57:45;;;;;;;;;;;;;;;;;;5032283;28;20385;-93
2022/12/18 07:00:11;;;;;;;;;;;-7.20;99.90;;;;;;5032237;28;20420;-93
2022/12/18 07:02:37;;;;;;;;;;;-7.10;99.90;;;;;;5019789;28;19930;-94
2022/12/18 07:05:02;;;;;;;;;;;-7.10;99.90;;;;;;5005009;28;19953;-92
2022/12/18 07:07:28;;;;;;;;;;;-7.10;99.90;;;;;;4951487;28;19981;-91
2022/12/18 07:09:54;;;;;;;;;;;-7.10;99.90;;;;;;4962451;28;19926;-91
2022/12/18 07:12:19;;;;;;;;;;;-7.10;99.90;;;;;;5014514;28;19926;-93
2022/12/18 07:14:45;;;;;;;;;;;-7.00;99.90;;;;;;5021416;28;19926;-93
2022/12/18 07:17:11;;;;;;;;;;;-7.00;99.90;;;;;;5023727;28;19930;-92
2022/12/18 07:19:36;;;;;;;;;;;-7.20;99.90;;;;;;4957126;28;20413;-92
2022/12/18 07:22:02;;;;;;;;;;;-7.10;99.90;;;;;;5024302;28;19934;-93
2022/12/18 07:24:28;;;;;;;;;;;-7.20;99.90;;;;;;4959995;28;19969;-93
2022/12/18 07:26:54;;;;;;;;;;;-7.10;99.90;;;;;;5022722;28;19930;-92
2022/12/18 07:29:19;;;;;;;;;;;-7.10;99.90;;;;;;5024315;28;19922;-92
2022/12/18 07:31:45;;;;;;;;;;;-7.00;99.90;;;;;;5040415;28;19927;-93
2022/12/18 07:34:11;;;;;;;;;;;-7.10;99.90;;;;;;5039791;28;19926;-92
2022/12/18 07:36:37;;;;;;;;;;;-7.00;99.90;;;;;;5045829;28;19937;-92
2022/12/18 07:39:03;;;;;;;;;;;-7.00;99.90;;;;;;5034521;28;19926;-93
2022/12/18 07:41:29;;;;;;;;;;;;;;;;;;5023710;28;19926;-92
2022/12/18 07:43:55;;;;;;;;;;;-6.90;99.90;;;;;;5043257;28;19926;-94
2022/12/18 07:46:20;;;;;;;;;;;-6.90;99.90;;;;;;4981254;28;19936;-92
2022/12/18 07:48:46;;;;;;;;;;;-7.00;99.90;;;;;;5022197;28;19934;-93
2022/12/18 07:51:12;;;;;;;;;;;-6.90;99.90;;;;;;4946143;28;19926;-91
2022/12/18 07:53:38;;;;;;;;;;;-6.90;99.90;;;;;;5031278;28;19926;-94
2022/12/18 07:56:05;;;;;;;;;;;-7.00;99.90;;;;;;5010801;28;20358;-93
2022/12/18 07:58:32;;;;;;;;;;;-7.10;99.90;;;;;;5031805;28;20017;-92
2022/12/18 08:01:05;;;;;;;;;;;-7.00;99.90;;;;;;5029914;28;19934;-92
2022/12/18 08:03:31;;;;;;;;;;;-7.00;99.90;;;;;;5029610;28;19926;-93
2022/12/18 08:06:01;;;;;;;;;;;-6.90;99.90;;;;;;4948724;28;19952;-91
2022/12/18 08:08:27;;;;;;;;;;;-6.90;99.90;;;;;;5016313;28;19931;-93
2022/12/18 08:10:53;;;;;;;;;;;-6.90;99.90;;;;;;4956502;28;19926;-95
2022/12/18 08:13:19;;;;;;;;;;;-6.90;99.90;;;;;;5047356;28;19979;-92
2022/12/18 08:15:44;;;;;;;;;;;-6.70;99.90;;;;;;5012630;28;19926;-92
2022/12/18 08:18:10;;;;;;;;;;;-6.70;99.90;;;;;;5010433;28;19927;-93
2022/12/18 08:20:35;;;;;;;;;;;-6.60;99.90;;;;;;5030802;28;19926;-93
2022/12/18 08:23:01;;;;;;;;;;;-6.50;99.90;;;;;;4971645;28;20428;-92
2022/12/18 08:25:27;;;;;;;;;;;-6.50;99.90;;;;;;4941198;28;19940;-92
2022/12/18 08:27:52;;;;;;;;;;;-6.50;99.90;;;;;;5027294;28;20278;-93
2022/12/18 08:30:18;;;;;;;;;;;-6.50;99.90;;;;;;4969350;28;19924;-95
2022/12/18 08:32:44;;;;;;;;;;;-6.40;99.90;;;;;;5030860;28;19994;-92
2022/12/18 08:35:11;;;;;;;;;;;-6.40;99.90;;;;;;4950554;28;19934;-93
2022/12/18 08:37:37;;;;;;;;;;;-6.40;99.90;;;;;;4949447;28;20188;-92
2022/12/18 08:40:03;;;;;;;;;;;-6.30;99.90;;;;;;5034752;28;20516;-92
2022/12/18 08:45:13;;;;;;;;;;;-6.40;99.90;;;;;;4980223;28;20408;-92
2022/12/18 08:47:39;;;;;;;;;;;-6.20;99.90;;;;;;4948334;28;19930;-92
2022/12/18 08:50:05;;;;;;;;;;;-6.10;99.90;;;;;;5035031;28;19926;-92
2022/12/18 08:52:32;;;;;;;;;;;-6.10;99.90;;;;;;4956384;28;19948;-91
2022/12/18 08:54:57;;;;;;;;;;;-6.10;99.90;;;;;;5033935;28;19930;-93
2022/12/18 08:57:26;;;;;;;;;;;-6.10;99.90;;;;;;5051331;28;19925;-92
2022/12/18 08:59:52;;;;;;;;;;;-6.00;99.90;;;;;;5028093;28;19976;-91
2022/12/18 09:02:17;;;;;;;;;;;-5.90;99.90;;;;;;5039187;28;19994;-92
2022/12/18 09:04:43;;;;;;;;;;;-5.80;99.90;;;;;;5051060;28;20479;-92
2022/12/18 09:07:09;;;;;;;;;;;-5.90;99.90;;;;;;5052711;28;19924;-93
2022/12/18 09:09:35;;;;;;;;;;;-5.80;99.90;;;;;;5019081;28;19925;-93
2022/12/18 09:12:01;;;;;;;;;;;-5.80;99.90;;;;;;5048161;28;19928;-94
2022/12/18 09:14:26;;;;;;;;;;;-5.90;99.90;;;;;;5038761;28;20014;-94
2022/12/18 09:16:52;;;;;;;;;;;-5.70;99.90;;;;;;5041513;28;19925;-92
2022/12/18 09:19:18;;;;;;;;;;;-5.60;99.90;;;;;;5052292;28;19978;-93
2022/12/18 09:21:43;;;;;;;;;;;-5.60;99.90;;;;;;5030663;28;20427;-92
2022/12/18 09:24:12;;;;;;;;;;;-5.60;99.90;;;;;;5057479;28;19925;-92
2022/12/18 09:26:37;;;;;;;;;;;-5.60;99.90;;;;;;5032979;28;19930;-94
2022/12/18 09:29:03;;;;;;;;;;;-5.60;99.90;;;;;;5023788;28;19950;-94
2022/12/18 09:31:29;;;;;;;;;;;-5.50;99.90;;;;;;5045952;28;20299;-91
2022/12/18 09:33:55;;;;;;;;;;;-5.40;99.90;;;;;;5048565;28;19996;-93
2022/12/18 09:36:21;;;;;;;;;;;-1.40;99.90;;;;;;5040194;28;20030;-92
2022/12/18 09:38:46;;;;;;;;;;;-5.30;99.90;;;;;;5051276;28;19932;-92
2022/12/18 09:41:31;;;;;;;;;;;-5.10;99.90;;;;;;5038138;28;19932;-92
2022/12/18 09:44:01;;;;;;;;;;;-5.10;99.90;;;;;;5060942;28;19924;-91
2022/12/18 09:46:29;;;;;;;;;;;-5.10;99.90;;;;;;5053930;28;19929;-92
2022/12/18 09:48:56;;;;;;;;;;;-1.40;99.90;;;;;;5049753;28;19946;-92
2022/12/18 09:51:25;;;;;;;;;;;-5.10;99.90;;;;;;5044532;28;19925;-92
2022/12/18 09:53:53;;;;;;;;;;;-4.60;99.90;;;;;;5046628;28;19925;-92
2022/12/18 09:56:22;;;;;;;;;;;-2.00;99.90;;;;;;5038300;28;19925;-91
2022/12/18 09:58:48;;;;;;;;;;;-1.90;99.90;;;;;;4956486;28;20005;-91
2022/12/18 10:01:23;;;;;;;;;;;-4.30;99.90;;;;;;5043296;28;19924;-91
2022/12/18 10:03:50;;;;;;;;;;;-4.90;99.90;;;;;;5035066;28;19922;-92
2022/12/18 10:06:38;;;;;;;;;;;-4.80;99.90;;;;;;5032964;28;19934;-92
2022/12/18 10:09:16;;;;;;;;;;;-4.60;99.90;;;;;;5009707;28;19934;-92
2022/12/18 10:12:11;;;;;;;;;;;-4.90;99.90;;;;;;4959234;28;19926;-92
2022/12/18 10:14:52;;;;;;;;;;;-5.00;99.90;;;;;;5017836;28;19929;-93
2022/12/18 10:17:24;;;;;;;;;;;-5.00;99.90;;;;;;5032587;28;19930;-93
2022/12/18 10:19:56;;;;;;;;;;;-5.30;99.90;;;;;;5045425;28;19926;-91
2022/12/18 10:22:39;;;;;;;;;;;-5.00;99.90;;;;;;5060501;28;19933;-91
2022/12/18 10:25:14;;;;;;;;;;;-5.00;99.90;;;;;;5033781;28;19933;-93
2022/12/18 10:27:39;;;;;;;;;;;-4.90;99.90;;;;;;5040014;28;20208;-91
2022/12/18 10:30:16;;;;;;;;;;;-4.50;99.90;;;;;;5019394;28;19970;-91
2022/12/18 10:32:42;;;;;;;;;;;-4.50;99.90;;;;;;5035106;28;20331;-91
2022/12/18 10:35:11;;;;;;;;;;;-2.60;99.90;;;;;;5009240;28;19930;-93
2022/12/18 10:37:56;;;;;;;;;;;-4.70;99.90;;;;;;5033702;28;20029;-93
2022/12/18 10:40:22;;;;;;;;;;;-2.20;99.90;;;;;;5033976;28;19933;-92
2022/12/18 10:43:18;;;;;;;;;;;-4.80;99.90;;;;;;5013578;28;20009;-91
2022/12/18 10:45:57;;;;;;;;;;;-4.60;99.90;;;;;;5011179;28;19926;-92
2022/12/18 10:48:23;;;;;;;;;;;-4.30;99.90;;;;;;5053066;28;19926;-92
2022/12/18 10:50:51;;;;;;;;;;;-2.20;99.90;;;;;;5018298;28;19927;-94
2022/12/18 10:53:40;;;;;;;;;;;-1.20;99.90;;;;;;5034029;28;19934;-92
2022/12/18 10:56:06;;;;;;;;;;;-4.40;99.90;;;;;;5018602;28;19933;-91
2022/12/18 10:58:33;;;;;;;;;;;-2.30;99.90;;;;;;5014852;28;19973;-92
2022/12/18 11:01:11;;;;;;;;;;;-4.30;99.90;;;;;;5029927;28;19926;-92
2022/12/18 11:03:41;;;;;;;;;;;-4.30;99.90;;;;;;5026504;28;20503;-92
2022/12/18 11:06:06;;;;;;;;;;;-4.20;99.90;;;;;;5030233;28;19961;-91
2022/12/18 11:08:32;;;;;;;;;;;-3.90;99.90;;;;;;5033607;28;20309;-91
2022/12/18 11:10:58;;;;;;;;;;;-2.50;99.90;;;;;;5018543;28;20305;-93
2022/12/18 11:13:25;;;;;;;;;;;-1.50;99.90;;;;;;5035416;28;20030;-93
2022/12/18 11:15:51;;;;;;;;;;;-1.40;99.90;;;;;;5044832;28;19930;-92
2022/12/18 11:18:19;;;;;;;;;;;-1.80;99.90;;;;;;5026607;28;19952;-93
2022/12/18 11:20:50;;;;;;;;;;;-1.40;99.90;;;;;;5029190;28;19929;-92
2022/12/18 11:23:15;;;;;;;;;;;-1.20;99.90;;;;;;5059124;28;19933;-93
2022/12/18 11:25:50;;;;;;;;;;;-3.90;99.90;;;;;;4990343;28;19926;-92
2022/12/18 11:28:40;;;;;;;;;;;-1.20;99.90;;;;;;5028506;28;19930;-92
2022/12/18 11:31:15;;;;;;;;;;;-3.60;99.90;;;;;;5016366;28;20403;-92
2022/12/18 11:33:42;;;;;;;;;;;-3.60;99.90;;;;;;5032777;28;19933;-93
2022/12/18 11:36:09;;;;;;;;;;;-3.50;99.90;;;;;;5028875;28;19927;-92
2022/12/18 11:38:42;;;;;;;;;;;-3.50;99.90;;;;;;5026244;28;19927;-93
2022/12/18 11:44:15;;;;;;;;;;;-3.40;99.90;;;;;;5051508;28;19941;-93
2022/12/18 11:46:46;;;;;;;;;;;-3.40;99.90;;;;;;5029693;28;19952;-92
2022/12/18 11:49:12;;;;;;;;;;;-1.40;99.90;;;;;;5031135;28;19934;-93
2022/12/18 11:51:48;;;;;;;;;;;-3.50;99.90;;;;;;5029285;28;20324;-92
2022/12/18 11:54:14;;;;;;;;;;;-3.20;99.90;;;;;;5035387;28;19934;-93
2022/12/18 11:56:45;;;;;;;;;;;-3.30;99.90;;;;;;5022302;28;19926;-93
2022/12/18 11:59:14;;;;;;;;;;;-3.20;99.90;;;;;;4961298;28;20020;-94
2022/12/18 12:01:39;;;;;;;;;;;-3.10;99.90;;;;;;5027623;28;19933;-94
2022/12/18 12:04:05;;;;;;;;;;;-3.30;99.90;;;;;;5043618;28;19965;-93
2022/12/18 12:06:49;;;;;;;;;;;-1.70;99.90;;;;;;5033885;28;19926;-93
2022/12/18 12:09:31;;;;;;;;;;;-3.00;99.90;;;;;;5052246;28;20408;-91
2022/12/18 12:12:02;;;;;;;;;;;-3.00;99.90;;;;;;5031117;28;19926;-91
2022/12/18 12:14:37;;;;;;;;;;;-2.90;99.90;;;;;;5037508;28;20012;-93
2022/12/18 12:17:12;;;;;;;;;;;-2.90;99.90;;;;;;5031742;28;19958;-92
2022/12/18 12:19:44;;;;;;;;;;;-1.20;99.90;;;;;;5053154;28;19938;-92
2022/12/18 12:22:27;;;;;;;;;;;-2.80;99.90;;;;;;5025019;28;20428;-93
2022/12/18 12:24:59;;;;;;;;;;;-2.70;99.90;;;;;;5032431;28;19934;-92
2022/12/18 12:27:25;;;;;;;;;;;-2.70;99.90;;;;;;5051567;28;20242;-93
2022/12/18 12:30:06;;;;;;;;;;;-2.60;99.90;;;;;;5029069;28;19932;-91
2022/12/18 12:32:34;;;;;;;;;;;-2.70;99.90;;;;;;5038521;28;19926;-91
2022/12/18 12:35:00;;;;;;;;;;;-2.60;99.90;;;;;;5030234;28;19938;-92
2022/12/18 12:37:35;;;;;;;;;;;-0.40;99.90;;;;;;5033401;28;19928;-93
2022/12/18 12:40:01;;;;;;;;;;;-2.50;99.90;;;;;;5033232;28;19937;-94
2022/12/18 12:45:34;;;;;;;;;;;-2.40;99.90;;;;;;5058839;28;19940;-94
2022/12/18 12:48:02;;;;;;;;;;;-2.40;99.90;;;;;;5040124;28;19992;-94
2022/12/18 12:50:29;;;;;;;;;;;-1.00;99.90;;;;;;5036038;28;19942;-94
2022/12/18 12:52:55;;;;;;;;;;;-2.30;99.90;;;;;;5023541;28;19979;-93
2022/12/18 12:55:23;;;;;;;;;;;-0.70;99.90;;;;;;5031500;28;19930;-93
2022/12/18 12:58:18;;;;;;;;;;;-2.30;99.90;;;;;;5043507;28;19951;-92
2022/12/18 13:00:53;;;;;;;;;;;-2.20;99.90;;;;;;4993396;28;20383;-93
2022/12/18 13:03:18;;;;;;;;;;;-2.20;99.90;;;;;;5030788;28;19930;-93
2022/12/18 13:05:52;;;;;;;;;;;-1.10;99.90;;;;;;5038360;28;20310;-92
2022/12/18 13:08:23;;;;;;;;;;;-2.20;99.90;;;;;;5034341;28;20369;-92
2022/12/18 13:10:49;;;;;;;;;;;-2.10;99.90;;;;;;5046505;28;19949;-92
2022/12/18 13:13:15;;;;;;;;;;;-2.10;99.90;;;;;;5018658;28;19926;-92
2022/12/18 13:15:46;;;;;;;;;;;-0.80;99.90;;;;;;5038580;28;20329;-94
2022/12/18 13:18:15;;;;;;;;;;;-2.00;99.90;;;;;;5040979;28;19938;-92
2022/12/18 13:20:40;;;;;;;;;;;-1.90;99.90;;;;;;5031237;28;20007;-94
2022/12/18 13:23:24;;;;;;;;;;;-0.20;99.90;;;;;;5045592;28;19993;-94
2022/12/18 13:25:51;;;;;;;;;;;-1.90;99.90;;;;;;5031575;28;20289;-93
2022/12/18 13:28:20;;;;;;;;;;;0.20;99.90;;;;;;5037851;28;19928;-93
2022/12/18 13:30:50;;;;;;;;;;;-0.10;99.90;;;;;;5028207;28;19934;-93
2022/12/18 13:33:16;;;;;;;;;;;-2.00;99.90;;;;;;5046054;28;19947;-91
2022/12/18 13:35:41;;;;;;;;;;;-2.10;99.90;;;;;;5044212;28;19927;-93
2022/12/18 13:38:25;;;;;;;;;;;-0.50;99.90;;;;;;5038193;28;19967;-92
2022/12/18 13:40:51;;;;;;;;;;;-1.90;99.90;;;;;;5023141;28;19927;-93
2022/12/18 13:43:19;;;;;;;;;;;-1.90;99.90;;;;;;5027146;28;20033;-94
2022/12/18 13:45:47;;;;;;;;;;;-3.00;99.90;;;;;;5033046;28;20301;-92
2022/12/18 13:48:21;;;;;;;;;;;0.10;99.90;;;;;;5032646;28;19926;-94
2022/12/18 13:50:58;;;;;;;;;;;-1.90;99.90;;;;;;5031338;28;19936;-92
2022/12/18 13:53:27;;;;;;;;;;;-1.80;99.90;;;;;;5036939;28;20011;-92
2022/12/18 13:55:53;;;;;;;;;;;-0.80;99.90;;;;;;5037961;28;19960;-93
2022/12/18 13:58:18;;;;;;;;;;;-1.80;99.90;;;;;;5050949;28;19924;-92
2022/12/18 14:00:44;;;;;;;;;;;-1.80;99.90;;;;;;5048330;28;19925;-92
2022/12/18 14:03:21;;;;;;;;;;;-0.60;99.90;;;;;;5048031;28;19924;-92
2022/12/18 14:05:51;;;;;;;;;;;-1.80;99.90;;;;;;5045629;28;19968;-93
2022/12/18 14:08:18;;;;;;;;;;;-0.70;99.90;;;;;;5065058;28;20009;-92
2022/12/18 14:10:44;;;;;;;;;;;-0.20;99.90;;;;;;5034216;28;20399;-92
2022/12/18 14:13:11;;;;;;;;;;;0.50;99.90;;;;;;5046932;28;19932;-92
2022/12/18 14:15:40;;;;;;;;;;;-0.30;99.90;;;;;;5049360;28;19936;-92
2022/12/18 14:18:23;;;;;;;;;;;-1.60;99.90;;;;;;5046910;28;19924;-92
2022/12/18 14:20:50;;;;;;;;;;;-1.80;99.90;;;;;;5035454;28;19969;-95
2022/12/18 14:23:29;;;;;;;;;;;-1.80;99.90;;;;;;5047284;28;20010;-93
2022/12/18 14:25:55;;;;;;;;;;;-1.80;99.90;;;;;;5064083;28;19925;-94
2022/12/18 14:28:23;;;;;;;;;;;-1.80;99.90;;;;;;5046809;28;19925;-92
2022/12/18 14:30:49;;;;;;;;;;;-1.80;99.90;;;;;;5038221;28;20370;-91
2022/12/18 14:33:18;;;;;;;;;;;0.00;99.90;;;;;;5044559;28;19925;-93
2022/12/18 14:35:55;;;;;;;;;;;0.00;99.90;;;;;;5048251;28;19996;-93